Weather at Ocean Cay Heliport

Public forecast

Using degrees Celsius for public forecast. Weather courtesy of forecast.io.

Closest aviation weather report (METAR) to Ocean Cay Heliport

Closest report is Miami International Airport, 62.5 nm (115.8 km) WNW.

2024/05/26 21:53 (retrieved 15 minutes ago)

KMIA 262153Z 16010G19KT 10SM SCT040 SCT250 33/24 A2991 RMK AO2 SLP128 T03330239

Closest aviation forecast (TAF) to Ocean Cay Heliport

Closest forecast is Miami International Airport, 62.5 nm (115.8 km) WNW.

2024/05/26 21:00 Ammendment (retrieved 1 hour ago)

TAF AMD KMIA 262058Z 2621/2724 15011G19KT P6SM VCSH SCT030 SCT050 FM270000 16007KT P6SM FEW035 SCT250 FM270300 VRB04KT P6SM FEW035 FEW250 FM271600 15010KT P6SM FEW030 SCT050 FM272000 15011KT P6SM VCSH SCT030 SCT050